sensor_id;sensor_type;location;lat;lon;timestamp;P1;durP1;ratioP1;P2;durP2;ratioP2
71298;SDS011;59083;47.974;21.722;2023-04-06T00:00:48;12.20;;;4.87;;
71298;SDS011;59083;47.974;21.722;2023-04-06T00:03:50;10.32;;;4.30;;
71298;SDS011;59083;47.974;21.722;2023-04-06T00:06:51;11.03;;;4.63;;
71298;SDS011;59083;47.974;21.722;2023-04-06T00:09:53;10.27;;;4.72;;
71298;SDS011;59083;47.974;21.722;2023-04-06T00:12:54;10.60;;;4.57;;
71298;SDS011;59083;47.974;21.722;2023-04-06T00:15:57;9.57;;;4.28;;
71298;SDS011;59083;47.974;21.722;2023-04-06T00:18:59;10.07;;;4.72;;
71298;SDS011;59083;47.974;21.722;2023-04-06T00:22:00;11.20;;;4.67;;
71298;SDS011;59083;47.974;21.722;2023-04-06T00:25:03;10.68;;;4.37;;
71298;SDS011;59083;47.974;21.722;2023-04-06T00:28:04;11.65;;;4.97;;
71298;SDS011;59083;47.974;21.722;2023-04-06T00:31:05;13.90;;;4.95;;
71298;SDS011;59083;47.974;21.722;2023-04-06T00:34:07;14.55;;;4.70;;
71298;SDS011;59083;47.974;21.722;2023-04-06T00:37:08;11.57;;;5.07;;
71298;SDS011;59083;47.974;21.722;2023-04-06T00:40:09;9.38;;;4.70;;
71298;SDS011;59083;47.974;21.722;2023-04-06T00:43:11;11.48;;;5.10;;
71298;SDS011;59083;47.974;21.722;2023-04-06T00:46:13;8.77;;;3.85;;
71298;SDS011;59083;47.974;21.722;2023-04-06T00:49:14;10.18;;;4.78;;
71298;SDS011;59083;47.974;21.722;2023-04-06T00:52:16;12.40;;;4.70;;
71298;SDS011;59083;47.974;21.722;2023-04-06T00:55:19;11.15;;;5.10;;
71298;SDS011;59083;47.974;21.722;2023-04-06T00:58:21;9.95;;;4.90;;
71298;SDS011;59083;47.974;21.722;2023-04-06T01:01:23;12.02;;;4.37;;
71298;SDS011;59083;47.974;21.722;2023-04-06T01:04:26;10.80;;;4.68;;
71298;SDS011;59083;47.974;21.722;2023-04-06T01:07:28;11.50;;;4.60;;
71298;SDS011;59083;47.974;21.722;2023-04-06T01:10:33;11.55;;;4.85;;
71298;SDS011;59083;47.974;21.722;2023-04-06T01:13:35;10.80;;;4.60;;
71298;SDS011;59083;47.974;21.722;2023-04-06T01:16:38;9.80;;;4.55;;
71298;SDS011;59083;47.974;21.722;2023-04-06T01:19:40;9.75;;;4.60;;
71298;SDS011;59083;47.974;21.722;2023-04-06T01:22:42;11.17;;;4.87;;
71298;SDS011;59083;47.974;21.722;2023-04-06T01:25:45;9.02;;;3.90;;
71298;SDS011;59083;47.974;21.722;2023-04-06T01:28:47;9.13;;;4.30;;
71298;SDS011;59083;47.974;21.722;2023-04-06T01:31:49;10.02;;;4.22;;
71298;SDS011;59083;47.974;21.722;2023-04-06T01:34:50;10.50;;;4.57;;
71298;SDS011;59083;47.974;21.722;2023-04-06T01:37:52;8.17;;;3.73;;
71298;SDS011;59083;47.974;21.722;2023-04-06T01:40:55;9.65;;;4.50;;
71298;SDS011;59083;47.974;21.722;2023-04-06T01:43:58;12.88;;;4.43;;
71298;SDS011;59083;47.974;21.722;2023-04-06T01:47:00;8.95;;;4.30;;
71298;SDS011;59083;47.974;21.722;2023-04-06T01:50:01;11.45;;;4.20;;
71298;SDS011;59083;47.974;21.722;2023-04-06T01:53:09;9.20;;;3.63;;
71298;SDS011;59083;47.974;21.722;2023-04-06T01:56:11;12.10;;;4.68;;
71298;SDS011;59083;47.974;21.722;2023-04-06T01:59:13;11.45;;;4.57;;
71298;SDS011;59083;47.974;21.722;2023-04-06T02:02:15;10.50;;;4.78;;
71298;SDS011;59083;47.974;21.722;2023-04-06T02:05:19;12.90;;;4.90;;
71298;SDS011;59083;47.974;21.722;2023-04-06T02:08:21;11.20;;;5.03;;
71298;SDS011;59083;47.974;21.722;2023-04-06T02:11:22;8.98;;;4.40;;
71298;SDS011;59083;47.974;21.722;2023-04-06T02:14:24;10.93;;;4.57;;
71298;SDS011;59083;47.974;21.722;2023-04-06T02:17:27;10.88;;;4.40;;
71298;SDS011;59083;47.974;21.722;2023-04-06T02:20:28;10.02;;;4.87;;
71298;SDS011;59083;47.974;21.722;2023-04-06T02:23:29;11.13;;;4.73;;
71298;SDS011;59083;47.974;21.722;2023-04-06T02:26:31;9.55;;;4.35;;
71298;SDS011;59083;47.974;21.722;2023-04-06T02:29:33;9.73;;;5.12;;
71298;SDS011;59083;47.974;21.722;2023-04-06T02:32:34;9.23;;;4.37;;
71298;SDS011;59083;47.974;21.722;2023-04-06T02:35:36;10.13;;;4.80;;
71298;SDS011;59083;47.974;21.722;2023-04-06T02:38:37;12.07;;;5.17;;
71298;SDS011;59083;47.974;21.722;2023-04-06T02:41:39;9.95;;;4.50;;
71298;SDS011;59083;47.974;21.722;2023-04-06T02:44:41;10.43;;;4.87;;
71298;SDS011;59083;47.974;21.722;2023-04-06T02:47:43;12.30;;;5.25;;
71298;SDS011;59083;47.974;21.722;2023-04-06T02:50:47;11.00;;;4.70;;
71298;SDS011;59083;47.974;21.722;2023-04-06T02:53:48;11.50;;;5.07;;
71298;SDS011;59083;47.974;21.722;2023-04-06T02:56:50;13.15;;;5.10;;
71298;SDS011;59083;47.974;21.722;2023-04-06T02:59:51;15.75;;;5.82;;
71298;SDS011;59083;47.974;21.722;2023-04-06T03:02:53;12.93;;;5.53;;
71298;SDS011;59083;47.974;21.722;2023-04-06T03:05:55;11.98;;;5.40;;
71298;SDS011;59083;47.974;21.722;2023-04-06T03:09:00;11.70;;;5.50;;
71298;SDS011;59083;47.974;21.722;2023-04-06T03:12:01;12.27;;;5.60;;
71298;SDS011;59083;47.974;21.722;2023-04-06T03:15:04;11.52;;;5.75;;
71298;SDS011;59083;47.974;21.722;2023-04-06T03:18:06;11.43;;;5.45;;
71298;SDS011;59083;47.974;21.722;2023-04-06T03:21:08;13.32;;;5.95;;
71298;SDS011;59083;47.974;21.722;2023-04-06T03:24:10;15.27;;;5.13;;
71298;SDS011;59083;47.974;21.722;2023-04-06T03:27:12;12.52;;;5.53;;
71298;SDS011;59083;47.974;21.722;2023-04-06T03:30:14;11.38;;;5.07;;
71298;SDS011;59083;47.974;21.722;2023-04-06T03:33:18;12.02;;;5.65;;
71298;SDS011;59083;47.974;21.722;2023-04-06T03:36:21;16.90;;;5.65;;
71298;SDS011;59083;47.974;21.722;2023-04-06T03:39:22;13.70;;;5.20;;
71298;SDS011;59083;47.974;21.722;2023-04-06T03:42:24;12.05;;;5.37;;
71298;SDS011;59083;47.974;21.722;2023-04-06T03:45:26;12.45;;;5.72;;
71298;SDS011;59083;47.974;21.722;2023-04-06T03:48:27;12.77;;;5.78;;
71298;SDS011;59083;47.974;21.722;2023-04-06T03:51:28;11.82;;;5.68;;
71298;SDS011;59083;47.974;21.722;2023-04-06T03:54:30;10.53;;;5.20;;
71298;SDS011;59083;47.974;21.722;2023-04-06T03:57:31;11.30;;;5.12;;
71298;SDS011;59083;47.974;21.722;2023-04-06T04:00:32;12.95;;;6.20;;
71298;SDS011;59083;47.974;21.722;2023-04-06T04:03:34;11.57;;;5.82;;
71298;SDS011;59083;47.974;21.722;2023-04-06T04:06:35;12.55;;;5.37;;
71298;SDS011;59083;47.974;21.722;2023-04-06T04:09:37;13.07;;;4.80;;
71298;SDS011;59083;47.974;21.722;2023-04-06T04:12:38;9.70;;;5.03;;
71298;SDS011;59083;47.974;21.722;2023-04-06T04:15:40;12.20;;;5.03;;
71298;SDS011;59083;47.974;21.722;2023-04-06T04:18:41;16.50;;;5.25;;
71298;SDS011;59083;47.974;21.722;2023-04-06T04:21:45;9.77;;;3.92;;
71298;SDS011;59083;47.974;21.722;2023-04-06T04:24:47;11.07;;;4.73;;
71298;SDS011;59083;47.974;21.722;2023-04-06T04:27:49;12.55;;;4.95;;
71298;SDS011;59083;47.974;21.722;2023-04-06T04:30:52;10.45;;;4.93;;
71298;SDS011;59083;47.974;21.722;2023-04-06T04:33:53;13.15;;;4.85;;
71298;SDS011;59083;47.974;21.722;2023-04-06T04:36:57;11.05;;;4.80;;
71298;SDS011;59083;47.974;21.722;2023-04-06T04:40:00;13.60;;;5.50;;
71298;SDS011;59083;47.974;21.722;2023-04-06T04:43:04;13.68;;;5.82;;
71298;SDS011;59083;47.974;21.722;2023-04-06T04:46:06;12.13;;;4.90;;
71298;SDS011;59083;47.974;21.722;2023-04-06T04:49:08;8.95;;;4.40;;
71298;SDS011;59083;47.974;21.722;2023-04-06T04:52:09;11.05;;;4.68;;
71298;SDS011;59083;47.974;21.722;2023-04-06T04:55:12;12.77;;;5.37;;
71298;SDS011;59083;47.974;21.722;2023-04-06T04:58:16;11.23;;;4.78;;
71298;SDS011;59083;47.974;21.722;2023-04-06T05:01:18;11.95;;;5.28;;
71298;SDS011;59083;47.974;21.722;2023-04-06T05:04:20;9.10;;;4.32;;
71298;SDS011;59083;47.974;21.722;2023-04-06T05:07:21;11.80;;;5.37;;
71298;SDS011;59083;47.974;21.722;2023-04-06T05:10:24;9.37;;;4.80;;
71298;SDS011;59083;47.974;21.722;2023-04-06T05:13:26;12.90;;;5.72;;
71298;SDS011;59083;47.974;21.722;2023-04-06T05:16:28;9.32;;;4.87;;
71298;SDS011;59083;47.974;21.722;2023-04-06T05:19:29;12.05;;;6.07;;
71298;SDS011;59083;47.974;21.722;2023-04-06T05:22:31;10.70;;;5.28;;
71298;SDS011;59083;47.974;21.722;2023-04-06T05:25:33;11.70;;;5.20;;
71298;SDS011;59083;47.974;21.722;2023-04-06T05:28:35;12.50;;;5.25;;
71298;SDS011;59083;47.974;21.722;2023-04-06T05:31:37;11.57;;;5.57;;
71298;SDS011;59083;47.974;21.722;2023-04-06T05:34:39;12.93;;;5.90;;
71298;SDS011;59083;47.974;21.722;2023-04-06T05:37:41;12.95;;;5.53;;
71298;SDS011;59083;47.974;21.722;2023-04-06T05:40:44;14.40;;;5.57;;
71298;SDS011;59083;47.974;21.722;2023-04-06T05:43:46;12.63;;;5.70;;
71298;SDS011;59083;47.974;21.722;2023-04-06T05:46:47;10.85;;;5.12;;
71298;SDS011;59083;47.974;21.722;2023-04-06T05:49:49;11.30;;;5.60;;
71298;SDS011;59083;47.974;21.722;2023-04-06T05:52:51;12.90;;;5.60;;
71298;SDS011;59083;47.974;21.722;2023-04-06T05:55:54;11.37;;;5.33;;
71298;SDS011;59083;47.974;21.722;2023-04-06T05:58:55;11.95;;;5.87;;
71298;SDS011;59083;47.974;21.722;2023-04-06T06:01:57;13.20;;;5.50;;
71298;SDS011;59083;47.974;21.722;2023-04-06T06:04:59;15.82;;;6.60;;
71298;SDS011;59083;47.974;21.722;2023-04-06T06:08:01;11.90;;;5.30;;
71298;SDS011;59083;47.974;21.722;2023-04-06T06:11:03;11.60;;;6.17;;
71298;SDS011;59083;47.974;21.722;2023-04-06T06:14:04;20.40;;;7.28;;
71298;SDS011;59083;47.974;21.722;2023-04-06T06:17:08;14.35;;;5.90;;
71298;SDS011;59083;47.974;21.722;2023-04-06T06:20:09;14.15;;;6.05;;
71298;SDS011;59083;47.974;21.722;2023-04-06T06:23:11;11.85;;;5.68;;
71298;SDS011;59083;47.974;21.722;2023-04-06T06:26:13;10.17;;;5.10;;
71298;SDS011;59083;47.974;21.722;2023-04-06T06:29:14;11.52;;;6.03;;
71298;SDS011;59083;47.974;21.722;2023-04-06T06:32:16;12.00;;;5.87;;
71298;SDS011;59083;47.974;21.722;2023-04-06T06:35:18;13.68;;;6.65;;
71298;SDS011;59083;47.974;21.722;2023-04-06T06:38:21;11.95;;;5.70;;
71298;SDS011;59083;47.974;21.722;2023-04-06T06:41:22;13.00;;;5.47;;
71298;SDS011;59083;47.974;21.722;2023-04-06T06:44:24;13.90;;;6.93;;
71298;SDS011;59083;47.974;21.722;2023-04-06T06:47:26;12.57;;;6.00;;
71298;SDS011;59083;47.974;21.722;2023-04-06T06:50:27;14.30;;;5.87;;
71298;SDS011;59083;47.974;21.722;2023-04-06T06:53:28;10.23;;;5.05;;
71298;SDS011;59083;47.974;21.722;2023-04-06T06:56:30;12.07;;;5.63;;
71298;SDS011;59083;47.974;21.722;2023-04-06T06:59:32;10.98;;;5.50;;
71298;SDS011;59083;47.974;21.722;2023-04-06T07:02:34;8.88;;;4.35;;
71298;SDS011;59083;47.974;21.722;2023-04-06T07:05:37;12.73;;;5.85;;
71298;SDS011;59083;47.974;21.722;2023-04-06T07:08:38;13.23;;;5.72;;
71298;SDS011;59083;47.974;21.722;2023-04-06T07:11:39;11.83;;;6.03;;
71298;SDS011;59083;47.974;21.722;2023-04-06T07:14:41;12.07;;;6.00;;
71298;SDS011;59083;47.974;21.722;2023-04-06T07:17:42;13.18;;;6.18;;
71298;SDS011;59083;47.974;21.722;2023-04-06T07:20:46;14.20;;;6.85;;
71298;SDS011;59083;47.974;21.722;2023-04-06T07:23:48;13.45;;;6.30;;
71298;SDS011;59083;47.974;21.722;2023-04-06T07:26:51;12.40;;;6.13;;
71298;SDS011;59083;47.974;21.722;2023-04-06T07:29:53;14.90;;;6.55;;
71298;SDS011;59083;47.974;21.722;2023-04-06T07:32:55;11.02;;;5.53;;
71298;SDS011;59083;47.974;21.722;2023-04-06T07:35:57;14.35;;;7.47;;
71298;SDS011;59083;47.974;21.722;2023-04-06T07:38:59;10.95;;;5.60;;
71298;SDS011;59083;47.974;21.722;2023-04-06T07:42:01;13.23;;;7.10;;
71298;SDS011;59083;47.974;21.722;2023-04-06T07:45:02;12.88;;;6.82;;
71298;SDS011;59083;47.974;21.722;2023-04-06T07:48:04;13.38;;;5.87;;
71298;SDS011;59083;47.974;21.722;2023-04-06T07:51:06;14.18;;;7.05;;
71298;SDS011;59083;47.974;21.722;2023-04-06T07:54:09;14.18;;;7.47;;
71298;SDS011;59083;47.974;21.722;2023-04-06T07:57:10;12.43;;;6.57;;
71298;SDS011;59083;47.974;21.722;2023-04-06T08:00:12;15.63;;;6.68;;
71298;SDS011;59083;47.974;21.722;2023-04-06T08:03:14;14.63;;;7.18;;
71298;SDS011;59083;47.974;21.722;2023-04-06T08:06:15;17.37;;;6.72;;
71298;SDS011;59083;47.974;21.722;2023-04-06T08:09:17;11.43;;;6.00;;
71298;SDS011;59083;47.974;21.722;2023-04-06T08:12:18;15.77;;;7.43;;
71298;SDS011;59083;47.974;21.722;2023-04-06T08:15:19;17.08;;;7.80;;
71298;SDS011;59083;47.974;21.722;2023-04-06T08:18:21;15.23;;;7.70;;
71298;SDS011;59083;47.974;21.722;2023-04-06T08:21:22;17.50;;;8.60;;
71298;SDS011;59083;47.974;21.722;2023-04-06T08:24:23;17.05;;;7.82;;
71298;SDS011;59083;47.974;21.722;2023-04-06T08:27:25;21.67;;;8.77;;
71298;SDS011;59083;47.974;21.722;2023-04-06T08:30:26;15.73;;;8.02;;
71298;SDS011;59083;47.974;21.722;2023-04-06T08:33:28;17.75;;;9.27;;
71298;SDS011;59083;47.974;21.722;2023-04-06T08:36:29;16.08;;;8.80;;
71298;SDS011;59083;47.974;21.722;2023-04-06T08:39:31;16.77;;;8.70;;
71298;SDS011;59083;47.974;21.722;2023-04-06T08:42:37;18.73;;;8.53;;
71298;SDS011;59083;47.974;21.722;2023-04-06T08:45:41;16.17;;;8.30;;
71298;SDS011;59083;47.974;21.722;2023-04-06T08:48:43;14.27;;;7.68;;
71298;SDS011;59083;47.974;21.722;2023-04-06T08:51:45;17.12;;;8.27;;
71298;SDS011;59083;47.974;21.722;2023-04-06T08:54:47;19.12;;;8.30;;
71298;SDS011;59083;47.974;21.722;2023-04-06T08:57:49;18.13;;;8.83;;
71298;SDS011;59083;47.974;21.722;2023-04-06T09:00:54;18.70;;;9.93;;
71298;SDS011;59083;47.974;21.722;2023-04-06T09:03:57;17.15;;;8.40;;
71298;SDS011;59083;47.974;21.722;2023-04-06T09:06:59;16.40;;;9.02;;
71298;SDS011;59083;47.974;21.722;2023-04-06T09:10:01;18.55;;;8.68;;
71298;SDS011;59083;47.974;21.722;2023-04-06T09:13:06;16.73;;;8.50;;
71298;SDS011;59083;47.974;21.722;2023-04-06T09:16:09;16.90;;;8.60;;
71298;SDS011;59083;47.974;21.722;2023-04-06T09:19:10;14.90;;;7.75;;
71298;SDS011;59083;47.974;21.722;2023-04-06T09:22:12;16.77;;;8.48;;
71298;SDS011;59083;47.974;21.722;2023-04-06T09:25:18;14.35;;;7.55;;
71298;SDS011;59083;47.974;21.722;2023-04-06T09:28:21;16.23;;;7.90;;
71298;SDS011;59083;47.974;21.722;2023-04-06T09:31:23;13.85;;;7.55;;
71298;SDS011;59083;47.974;21.722;2023-04-06T09:34:26;13.80;;;7.15;;
71298;SDS011;59083;47.974;21.722;2023-04-06T09:37:27;14.80;;;7.60;;
71298;SDS011;59083;47.974;21.722;2023-04-06T09:40:28;14.35;;;7.12;;
71298;SDS011;59083;47.974;21.722;2023-04-06T09:43:30;14.73;;;6.87;;
71298;SDS011;59083;47.974;21.722;2023-04-06T09:46:35;14.15;;;6.82;;
71298;SDS011;59083;47.974;21.722;2023-04-06T09:49:47;14.68;;;6.87;;
71298;SDS011;59083;47.974;21.722;2023-04-06T09:52:51;13.43;;;7.15;;
71298;SDS011;59083;47.974;21.722;2023-04-06T09:55:57;11.98;;;6.95;;
71298;SDS011;59083;47.974;21.722;2023-04-06T09:59:05;12.30;;;6.83;;
71298;SDS011;59083;47.974;21.722;2023-04-06T10:02:15;14.73;;;7.18;;
71298;SDS011;59083;47.974;21.722;2023-04-06T10:08:31;13.95;;;7.62;;
71298;SDS011;59083;47.974;21.722;2023-04-06T10:11:35;16.02;;;8.00;;
71298;SDS011;59083;47.974;21.722;2023-04-06T10:14:36;17.47;;;9.00;;
71298;SDS011;59083;47.974;21.722;2023-04-06T10:17:38;14.77;;;8.02;;
71298;SDS011;59083;47.974;21.722;2023-04-06T10:20:49;16.35;;;9.10;;
71298;SDS011;59083;47.974;21.722;2023-04-06T10:23:58;17.52;;;8.95;;
71298;SDS011;59083;47.974;21.722;2023-04-06T10:27:02;15.90;;;8.65;;
71298;SDS011;59083;47.974;21.722;2023-04-06T10:30:05;15.43;;;8.43;;
71298;SDS011;59083;47.974;21.722;2023-04-06T10:33:14;13.20;;;7.22;;
71298;SDS011;59083;47.974;21.722;2023-04-06T10:36:22;13.30;;;7.57;;
71298;SDS011;59083;47.974;21.722;2023-04-06T10:39:26;16.62;;;7.43;;
71298;SDS011;59083;47.974;21.722;2023-04-06T10:42:37;13.90;;;7.40;;
71298;SDS011;59083;47.974;21.722;2023-04-06T10:45:39;14.70;;;7.83;;
71298;SDS011;59083;47.974;21.722;2023-04-06T10:48:42;14.27;;;7.20;;
71298;SDS011;59083;47.974;21.722;2023-04-06T10:51:50;13.40;;;7.40;;
71298;SDS011;59083;47.974;21.722;2023-04-06T10:54:53;14.27;;;7.47;;
71298;SDS011;59083;47.974;21.722;2023-04-06T10:57:55;14.15;;;7.57;;
71298;SDS011;59083;47.974;21.722;2023-04-06T11:00:56;12.97;;;6.63;;
71298;SDS011;59083;47.974;21.722;2023-04-06T11:03:58;14.80;;;6.53;;
71298;SDS011;59083;47.974;21.722;2023-04-06T11:07:00;14.35;;;7.45;;
71298;SDS011;59083;47.974;21.722;2023-04-06T11:10:01;11.50;;;6.12;;
71298;SDS011;59083;47.974;21.722;2023-04-06T11:13:03;12.63;;;6.50;;
71298;SDS011;59083;47.974;21.722;2023-04-06T11:16:06;14.90;;;6.63;;
71298;SDS011;59083;47.974;21.722;2023-04-06T11:19:08;13.50;;;6.72;;
71298;SDS011;59083;47.974;21.722;2023-04-06T11:22:10;15.82;;;7.72;;
71298;SDS011;59083;47.974;21.722;2023-04-06T11:25:11;15.27;;;7.87;;
71298;SDS011;59083;47.974;21.722;2023-04-06T11:28:14;15.07;;;6.90;;
71298;SDS011;59083;47.974;21.722;2023-04-06T11:31:15;14.53;;;6.90;;
71298;SDS011;59083;47.974;21.722;2023-04-06T11:34:18;13.00;;;6.87;;
71298;SDS011;59083;47.974;21.722;2023-04-06T11:37:19;13.07;;;6.30;;
71298;SDS011;59083;47.974;21.722;2023-04-06T11:40:21;15.25;;;7.87;;
71298;SDS011;59083;47.974;21.722;2023-04-06T11:43:30;13.57;;;7.43;;
71298;SDS011;59083;47.974;21.722;2023-04-06T11:46:31;13.30;;;6.20;;
71298;SDS011;59083;47.974;21.722;2023-04-06T11:49:33;16.10;;;6.70;;
71298;SDS011;59083;47.974;21.722;2023-04-06T11:52:38;13.62;;;7.15;;
71298;SDS011;59083;47.974;21.722;2023-04-06T11:55:43;13.43;;;7.00;;
71298;SDS011;59083;47.974;21.722;2023-04-06T11:58:47;12.48;;;6.37;;
71298;SDS011;59083;47.974;21.722;2023-04-06T12:01:48;12.67;;;6.10;;
71298;SDS011;59083;47.974;21.722;2023-04-06T12:04:50;11.57;;;6.05;;
71298;SDS011;59083;47.974;21.722;2023-04-06T12:07:51;11.32;;;6.50;;
71298;SDS011;59083;47.974;21.722;2023-04-06T12:10:52;11.25;;;6.53;;
71298;SDS011;59083;47.974;21.722;2023-04-06T12:13:54;12.65;;;6.70;;
71298;SDS011;59083;47.974;21.722;2023-04-06T12:16:55;12.03;;;6.27;;
71298;SDS011;59083;47.974;21.722;2023-04-06T12:19:57;15.50;;;7.70;;
71298;SDS011;59083;47.974;21.722;2023-04-06T12:22:58;16.60;;;7.22;;
71298;SDS011;59083;47.974;21.722;2023-04-06T12:26:00;11.02;;;5.85;;
71298;SDS011;59083;47.974;21.722;2023-04-06T12:29:02;17.00;;;8.57;;
71298;SDS011;59083;47.974;21.722;2023-04-06T12:32:07;14.50;;;7.10;;
71298;SDS011;59083;47.974;21.722;2023-04-06T12:35:09;13.98;;;6.53;;
71298;SDS011;59083;47.974;21.722;2023-04-06T12:38:12;13.55;;;7.28;;
71298;SDS011;59083;47.974;21.722;2023-04-06T12:41:13;13.60;;;6.87;;
71298;SDS011;59083;47.974;21.722;2023-04-06T12:44:16;13.20;;;7.25;;
71298;SDS011;59083;47.974;21.722;2023-04-06T12:47:17;13.93;;;7.57;;
71298;SDS011;59083;47.974;21.722;2023-04-06T12:50:18;13.50;;;6.95;;
71298;SDS011;59083;47.974;21.722;2023-04-06T12:53:20;14.05;;;7.47;;
71298;SDS011;59083;47.974;21.722;2023-04-06T12:56:21;12.70;;;7.10;;
71298;SDS011;59083;47.974;21.722;2023-04-06T12:59:23;12.95;;;6.32;;
71298;SDS011;59083;47.974;21.722;2023-04-06T13:02:25;13.67;;;7.27;;
71298;SDS011;59083;47.974;21.722;2023-04-06T13:05:28;12.63;;;6.85;;
71298;SDS011;59083;47.974;21.722;2023-04-06T13:08:29;13.82;;;7.15;;
71298;SDS011;59083;47.974;21.722;2023-04-06T13:11:30;14.05;;;7.30;;
71298;SDS011;59083;47.974;21.722;2023-04-06T13:14:32;16.30;;;9.18;;
71298;SDS011;59083;47.974;21.722;2023-04-06T13:17:33;13.07;;;7.50;;
71298;SDS011;59083;47.974;21.722;2023-04-06T13:20:34;13.55;;;7.68;;
71298;SDS011;59083;47.974;21.722;2023-04-06T13:23:36;15.88;;;7.90;;
71298;SDS011;59083;47.974;21.722;2023-04-06T13:26:37;13.90;;;7.22;;
71298;SDS011;59083;47.974;21.722;2023-04-06T13:29:39;15.52;;;8.55;;
71298;SDS011;59083;47.974;21.722;2023-04-06T13:32:40;13.83;;;7.10;;
71298;SDS011;59083;47.974;21.722;2023-04-06T13:35:44;14.48;;;7.68;;
71298;SDS011;59083;47.974;21.722;2023-04-06T13:38:46;15.48;;;7.50;;
71298;SDS011;59083;47.974;21.722;2023-04-06T13:41:47;14.15;;;7.22;;
71298;SDS011;59083;47.974;21.722;2023-04-06T13:44:49;14.32;;;7.32;;
71298;SDS011;59083;47.974;21.722;2023-04-06T13:47:51;14.17;;;7.63;;
71298;SDS011;59083;47.974;21.722;2023-04-06T13:50:53;13.20;;;7.18;;
71298;SDS011;59083;47.974;21.722;2023-04-06T13:53:54;13.82;;;7.72;;
71298;SDS011;59083;47.974;21.722;2023-04-06T13:56:55;16.20;;;8.13;;
71298;SDS011;59083;47.974;21.722;2023-04-06T13:59:57;16.58;;;7.68;;
71298;SDS011;59083;47.974;21.722;2023-04-06T14:02:58;15.77;;;7.60;;
71298;SDS011;59083;47.974;21.722;2023-04-06T14:05:59;14.10;;;7.75;;
71298;SDS011;59083;47.974;21.722;2023-04-06T14:09:01;15.38;;;8.57;;
71298;SDS011;59083;47.974;21.722;2023-04-06T14:12:02;16.58;;;8.13;;
71298;SDS011;59083;47.974;21.722;2023-04-06T14:15:03;15.65;;;8.15;;
71298;SDS011;59083;47.974;21.722;2023-04-06T14:18:05;14.50;;;8.17;;
71298;SDS011;59083;47.974;21.722;2023-04-06T14:21:06;16.95;;;8.35;;
71298;SDS011;59083;47.974;21.722;2023-04-06T14:24:08;14.18;;;8.57;;
71298;SDS011;59083;47.974;21.722;2023-04-06T14:27:10;16.48;;;8.48;;
71298;SDS011;59083;47.974;21.722;2023-04-06T14:30:12;15.52;;;8.73;;
71298;SDS011;59083;47.974;21.722;2023-04-06T14:33:13;16.00;;;8.40;;
71298;SDS011;59083;47.974;21.722;2023-04-06T14:36:14;15.85;;;8.30;;
71298;SDS011;59083;47.974;21.722;2023-04-06T14:39:16;17.98;;;9.02;;
71298;SDS011;59083;47.974;21.722;2023-04-06T14:42:17;18.52;;;8.98;;
71298;SDS011;59083;47.974;21.722;2023-04-06T14:45:18;15.88;;;8.52;;
71298;SDS011;59083;47.974;21.722;2023-04-06T14:48:22;14.47;;;8.07;;
71298;SDS011;59083;47.974;21.722;2023-04-06T14:51:26;16.50;;;8.40;;
71298;SDS011;59083;47.974;21.722;2023-04-06T14:54:30;16.35;;;8.45;;
71298;SDS011;59083;47.974;21.722;2023-04-06T14:57:31;14.07;;;8.02;;
71298;SDS011;59083;47.974;21.722;2023-04-06T15:00:33;14.87;;;7.87;;
71298;SDS011;59083;47.974;21.722;2023-04-06T15:03:34;18.03;;;8.60;;
71298;SDS011;59083;47.974;21.722;2023-04-06T15:06:36;14.38;;;7.45;;
71298;SDS011;59083;47.974;21.722;2023-04-06T15:09:37;14.10;;;6.82;;
71298;SDS011;59083;47.974;21.722;2023-04-06T15:12:39;16.02;;;8.80;;
71298;SDS011;59083;47.974;21.722;2023-04-06T15:15:40;15.25;;;7.82;;
71298;SDS011;59083;47.974;21.722;2023-04-06T15:18:42;14.80;;;7.93;;
71298;SDS011;59083;47.974;21.722;2023-04-06T15:21:43;14.80;;;7.07;;
71298;SDS011;59083;47.974;21.722;2023-04-06T15:24:45;14.75;;;7.72;;
71298;SDS011;59083;47.974;21.722;2023-04-06T15:27:46;15.70;;;7.80;;
71298;SDS011;59083;47.974;21.722;2023-04-06T15:30:47;12.05;;;6.37;;
71298;SDS011;59083;47.974;21.722;2023-04-06T15:33:48;16.07;;;8.10;;
71298;SDS011;59083;47.974;21.722;2023-04-06T15:36:49;13.55;;;7.05;;
71298;SDS011;59083;47.974;21.722;2023-04-06T15:39:51;19.27;;;9.10;;
71298;SDS011;59083;47.974;21.722;2023-04-06T15:42:53;16.92;;;8.07;;
71298;SDS011;59083;47.974;21.722;2023-04-06T15:45:54;13.55;;;7.47;;
71298;SDS011;59083;47.974;21.722;2023-04-06T15:48:56;33.00;;;16.07;;
71298;SDS011;59083;47.974;21.722;2023-04-06T15:51:57;18.52;;;8.93;;
71298;SDS011;59083;47.974;21.722;2023-04-06T15:54:59;15.75;;;8.18;;
71298;SDS011;59083;47.974;21.722;2023-04-06T15:58:00;15.23;;;7.90;;
71298;SDS011;59083;47.974;21.722;2023-04-06T16:01:09;16.42;;;7.85;;
71298;SDS011;59083;47.974;21.722;2023-04-06T16:04:12;14.97;;;8.13;;
71298;SDS011;59083;47.974;21.722;2023-04-06T16:07:14;16.83;;;8.55;;
71298;SDS011;59083;47.974;21.722;2023-04-06T16:10:15;18.45;;;8.70;;
71298;SDS011;59083;47.974;21.722;2023-04-06T16:13:17;19.58;;;8.93;;
71298;SDS011;59083;47.974;21.722;2023-04-06T16:16:18;17.55;;;8.70;;
71298;SDS011;59083;47.974;21.722;2023-04-06T16:19:20;18.40;;;9.70;;
71298;SDS011;59083;47.974;21.722;2023-04-06T16:22:21;18.75;;;9.93;;
71298;SDS011;59083;47.974;21.722;2023-04-06T16:25:22;16.05;;;9.32;;
71298;SDS011;59083;47.974;21.722;2023-04-06T16:28:24;17.25;;;9.20;;
71298;SDS011;59083;47.974;21.722;2023-04-06T16:31:25;17.08;;;9.60;;
71298;SDS011;59083;47.974;21.722;2023-04-06T16:34:30;17.53;;;8.93;;
71298;SDS011;59083;47.974;21.722;2023-04-06T16:37:32;16.00;;;8.80;;
71298;SDS011;59083;47.974;21.722;2023-04-06T16:40:33;16.52;;;8.40;;
71298;SDS011;59083;47.974;21.722;2023-04-06T16:43:35;17.92;;;8.77;;
71298;SDS011;59083;47.974;21.722;2023-04-06T16:46:37;16.20;;;8.60;;
71298;SDS011;59083;47.974;21.722;2023-04-06T16:49:38;15.93;;;8.47;;
71298;SDS011;59083;47.974;21.722;2023-04-06T16:52:40;17.27;;;8.85;;
71298;SDS011;59083;47.974;21.722;2023-04-06T16:55:41;16.83;;;8.93;;
71298;SDS011;59083;47.974;21.722;2023-04-06T16:58:43;18.65;;;9.10;;
71298;SDS011;59083;47.974;21.722;2023-04-06T17:01:45;17.25;;;9.18;;
71298;SDS011;59083;47.974;21.722;2023-04-06T17:04:46;20.80;;;9.30;;
71298;SDS011;59083;47.974;21.722;2023-04-06T17:07:47;20.88;;;10.23;;
71298;SDS011;59083;47.974;21.722;2023-04-06T17:10:48;19.67;;;9.63;;
71298;SDS011;59083;47.974;21.722;2023-04-06T17:13:49;17.25;;;9.25;;
71298;SDS011;59083;47.974;21.722;2023-04-06T17:16:51;18.70;;;9.80;;
71298;SDS011;59083;47.974;21.722;2023-04-06T17:19:52;18.67;;;9.07;;
71298;SDS011;59083;47.974;21.722;2023-04-06T17:22:53;17.80;;;9.50;;
71298;SDS011;59083;47.974;21.722;2023-04-06T17:25:55;20.62;;;10.35;;
71298;SDS011;59083;47.974;21.722;2023-04-06T17:28:57;22.05;;;10.57;;
71298;SDS011;59083;47.974;21.722;2023-04-06T17:31:58;16.83;;;9.07;;
71298;SDS011;59083;47.974;21.722;2023-04-06T17:34:59;17.93;;;8.87;;
71298;SDS011;59083;47.974;21.722;2023-04-06T17:38:01;19.50;;;9.48;;
71298;SDS011;59083;47.974;21.722;2023-04-06T17:41:02;19.17;;;9.48;;
71298;SDS011;59083;47.974;21.722;2023-04-06T17:44:07;17.87;;;9.43;;
71298;SDS011;59083;47.974;21.722;2023-04-06T17:47:08;17.60;;;8.98;;
71298;SDS011;59083;47.974;21.722;2023-04-06T17:50:10;22.33;;;10.33;;